createdAt,value
2019-02-28T00:00:42.384Z,6.55
2019-02-28T00:03:10.185Z,6.47
2019-02-28T00:05:56.519Z,6.30
2019-02-28T00:08:42.861Z,6.30
2019-02-28T00:11:10.633Z,6.22
2019-02-28T00:13:38.241Z,6.09
2019-02-28T00:16:06.143Z,6.04
2019-02-28T00:18:33.700Z,6.04
2019-02-28T00:21:06.008Z,5.94
2019-02-28T00:23:30.560Z,5.94
2019-02-28T00:25:58.344Z,5.87
2019-02-28T00:28:26.605Z,5.83
2019-02-28T00:30:54.169Z,5.76
2019-02-28T00:33:23.083Z,5.74
2019-02-28T00:36:09.469Z,5.70
2019-02-28T00:38:56.182Z,5.66
2019-02-28T00:41:24.154Z,5.66
2019-02-28T00:43:51.657Z,5.62
2019-02-28T00:46:44.059Z,5.55
2019-02-28T00:49:26.294Z,5.52
2019-02-28T00:52:12.703Z,5.52
2019-02-28T00:54:44.353Z,5.48
2019-02-28T00:57:09.683Z,5.43
2019-02-28T00:59:56.053Z,5.38
2019-02-28T01:02:23.673Z,5.38
2019-02-28T01:04:51.374Z,5.35
2019-02-28T01:07:37.814Z,5.33
2019-02-28T01:12:54.641Z,5.30
2019-02-28T01:15:44.865Z,5.33
2019-02-28T01:21:17.934Z,5.44
2019-02-28T01:26:38.859Z,5.47
2019-02-28T01:29:08.412Z,5.44
2019-02-28T01:32:15.327Z,5.41
2019-02-28T01:34:45.930Z,5.32
2019-02-28T01:37:13.569Z,5.29
2019-02-28T01:39:41.198Z,5.29
2019-02-28T01:42:27.531Z,5.21
2019-02-28T01:44:55.080Z,5.21
2019-02-28T01:47:41.410Z,5.18
2019-02-28T01:50:29.632Z,5.17
2019-02-28T01:52:56.976Z,5.17
2019-02-28T01:55:43.320Z,5.15
2019-02-28T01:58:10.940Z,5.12
2019-02-28T02:00:38.507Z,5.09
2019-02-28T02:03:24.875Z,5.07
2019-02-28T02:05:52.559Z,5.06
2019-02-28T02:08:39.115Z,5.04
2019-02-28T02:11:06.677Z,5.04
2019-02-28T02:13:36.921Z,5.02
2019-02-28T02:16:05.947Z,5.00
2019-02-28T02:18:35.956Z,4.95
2019-02-28T02:21:22.239Z,4.95
2019-02-28T02:24:08.580Z,4.95
2019-02-28T02:26:36.328Z,4.92
2019-02-28T02:31:50.324Z,4.91
2019-02-28T02:34:17.959Z,4.89
2019-02-28T02:36:52.942Z,4.86
2019-02-28T02:39:17.520Z,4.84
2019-02-28T02:41:44.747Z,4.82
2019-02-28T02:44:32.090Z,4.81
2019-02-28T02:47:19.173Z,4.81
2019-02-28T02:50:05.549Z,4.74
2019-02-28T02:52:51.977Z,4.68
2019-02-28T02:55:19.999Z,4.62
2019-02-28T02:58:06.468Z,4.59
2019-02-28T03:03:43.202Z,4.55
2019-02-28T03:06:14.046Z,4.55
2019-02-28T03:08:38.796Z,4.46
2019-02-28T03:11:06.419Z,4.42
2019-02-28T03:13:52.821Z,4.39
2019-02-28T03:16:39.123Z,4.35
2019-02-28T03:34:59.426Z,4.46
2019-02-28T03:37:32.848Z,4.46
2019-02-28T03:40:02.468Z,4.52
2019-02-28T03:42:28.864Z,4.54
2019-02-28T03:45:14.772Z,4.56
2019-02-28T03:47:42.370Z,4.56
2019-02-28T03:50:09.967Z,4.67
2019-02-28T03:52:41.671Z,4.68
2019-02-28T03:55:07.953Z,4.60
2019-02-28T03:57:35.611Z,4.60
2019-02-28T04:00:21.978Z,4.41
2019-02-28T04:03:08.422Z,4.37
2019-02-28T04:05:35.992Z,4.34
2019-02-28T04:08:29.209Z,4.34
2019-02-28T04:10:54.784Z,4.33
2019-02-28T04:13:20.974Z,4.26
2019-02-28T04:18:44.134Z,4.14
2019-02-28T04:21:10.254Z,4.14
2019-02-28T04:23:35.945Z,4.11
2019-02-28T04:26:04.534Z,4.18
2019-02-28T04:28:32.169Z,4.30
2019-02-28T04:31:01.052Z,4.30
2019-02-28T04:33:28.658Z,4.56
2019-02-28T04:35:56.889Z,5.05
2019-02-28T04:38:25.669Z,5.24
2019-02-28T04:40:53.412Z,5.36
2019-02-28T04:43:21.032Z,5.36
2019-02-28T04:45:48.624Z,5.60
2019-02-28T04:48:34.984Z,5.75
2019-02-28T04:51:05.742Z,5.75
2019-02-28T04:53:31.893Z,6.13
2019-02-28T04:56:18.285Z,6.13
2019-02-28T04:58:45.992Z,6.32
2019-02-28T05:01:32.676Z,6.70
2019-02-28T05:04:02.346Z,6.70
2019-02-28T05:06:29.624Z,6.84
2019-02-28T05:09:15.951Z,6.97
2019-02-28T05:11:43.472Z,7.05
2019-02-28T05:14:30.084Z,7.18
2019-02-28T05:16:57.742Z,7.18
2019-02-28T05:19:25.323Z,7.21
2019-02-28T05:22:11.688Z,7.20
2019-02-28T05:24:42.284Z,7.21
2019-02-28T05:27:08.694Z,7.20
2019-02-28T05:29:55.001Z,7.16
2019-02-28T05:32:22.734Z,7.16
2019-02-28T05:35:09.121Z,7.16
2019-02-28T05:37:36.700Z,7.17
2019-02-28T05:40:23.050Z,7.21
2019-02-28T05:42:50.955Z,7.28
2019-02-28T05:45:18.498Z,7.28
2019-02-28T05:50:25.419Z,7.36
2019-02-28T05:52:53.085Z,7.38
2019-02-28T05:55:39.528Z,7.41
2019-02-28T05:58:25.959Z,7.45
2019-02-28T06:00:53.642Z,7.45
2019-02-28T06:03:21.409Z,7.47
2019-02-28T06:05:49.241Z,7.47
2019-02-28T06:08:16.826Z,7.50
2019-02-28T06:10:44.355Z,7.50
2019-02-28T06:13:12.163Z,7.49
2019-02-28T06:15:39.685Z,7.52
2019-02-28T06:18:07.276Z,7.52
2019-02-28T06:20:38.108Z,7.56
2019-02-28T06:23:06.268Z,7.58
2019-02-28T06:25:34.834Z,7.61
2019-02-28T06:28:02.382Z,7.65
2019-02-28T06:30:32.161Z,7.67
2019-02-28T06:32:59.950Z,7.67
2019-02-28T06:35:27.447Z,7.66
2019-02-28T06:37:55.058Z,7.65
2019-02-28T06:40:23.971Z,7.65
2019-02-28T06:42:51.517Z,7.67
2019-02-28T06:45:19.115Z,7.68
2019-02-28T06:47:49.728Z,7.68
2019-02-28T06:50:21.081Z,7.70
2019-02-28T06:52:50.826Z,7.70
2019-02-28T06:55:24.210Z,7.66
2019-02-28T06:57:54.482Z,7.53
2019-02-28T07:00:22.083Z,7.46
2019-02-28T07:02:50.261Z,7.46
2019-02-28T07:05:17.891Z,7.39
2019-02-28T07:07:45.769Z,7.26
2019-02-28T07:10:14.960Z,7.26
2019-02-28T07:12:42.558Z,7.21
2019-02-28T07:15:13.114Z,7.24
2019-02-28T07:17:42.738Z,7.26
2019-02-28T07:20:16.033Z,7.30
2019-02-28T07:22:43.879Z,7.35
2019-02-28T07:25:12.607Z,7.35
2019-02-28T07:27:40.600Z,7.43
2019-02-28T07:30:08.433Z,7.59
2019-02-28T07:32:35.994Z,7.70
2019-02-28T07:35:03.587Z,7.84
2019-02-28T07:37:33.026Z,7.98
2019-02-28T07:40:07.651Z,8.13
2019-02-28T07:42:37.561Z,8.13
2019-02-28T07:45:06.125Z,8.40
2019-02-28T07:47:34.702Z,8.40
2019-02-28T07:50:07.718Z,8.53
2019-02-28T07:52:34.542Z,8.64
2019-02-28T07:55:02.137Z,8.84
2019-02-28T07:57:29.926Z,8.84
2019-02-28T08:00:00.051Z,8.97
2019-02-28T08:02:27.648Z,9.07
2019-02-28T08:04:55.799Z,9.22
2019-02-28T08:07:23.427Z,9.37
2019-02-28T08:09:50.933Z,9.69
2019-02-28T08:12:19.062Z,9.69
2019-02-28T08:14:48.674Z,10.00
2019-02-28T08:17:16.291Z,10.16
2019-02-28T08:19:45.216Z,10.16
2019-02-28T08:22:12.767Z,10.33
2019-02-28T08:24:40.293Z,10.59
2019-02-28T08:27:08.051Z,10.70
2019-02-28T08:29:35.621Z,10.70
2019-02-28T08:32:06.740Z,10.81
2019-02-28T08:34:32.660Z,10.81
2019-02-28T08:37:01.287Z,10.93
2019-02-28T08:39:31.208Z,10.93
2019-02-28T08:42:04.576Z,11.04
2019-02-28T08:44:28.273Z,11.30
2019-02-28T08:46:56.558Z,11.39
2019-02-28T08:49:27.054Z,11.39
2019-02-28T08:51:54.559Z,11.63
2019-02-28T08:54:27.326Z,11.79
2019-02-28T08:56:55.659Z,11.79
2019-02-28T08:59:23.286Z,12.18
2019-02-28T09:01:53.609Z,12.35
2019-02-28T09:04:21.517Z,12.56
2019-02-28T09:06:51.872Z,12.76
2019-02-28T09:09:19.873Z,12.76
2019-02-28T09:11:47.739Z,13.10
2019-02-28T09:14:17.812Z,13.16
2019-02-28T09:16:46.643Z,13.16
2019-02-28T09:19:17.524Z,13.23
2019-02-28T09:21:52.883Z,13.26
2019-02-28T09:24:20.219Z,13.28
2019-02-28T09:26:48.043Z,13.29
2019-02-28T09:29:18.327Z,13.29
2019-02-28T09:31:44.822Z,13.30
2019-02-28T09:34:14.852Z,13.15
2019-02-28T09:36:42.370Z,13.15
2019-02-28T09:39:12.720Z,13.17
2019-02-28T09:41:41.315Z,13.24
2019-02-28T09:44:14.721Z,13.48
2019-02-28T09:46:42.281Z,13.53
2019-02-28T09:49:12.962Z,13.53
2019-02-28T09:51:39.401Z,13.53
2019-02-28T09:54:06.939Z,13.40
2019-02-28T09:56:34.807Z,13.41
2019-02-28T09:59:03.241Z,13.50
2019-02-28T10:01:31.351Z,13.71
2019-02-28T10:04:03.884Z,13.71
2019-02-28T10:06:33.181Z,13.98
2019-02-28T10:09:00.731Z,14.29
2019-02-28T10:11:32.598Z,14.62
2019-02-28T10:14:00.136Z,15.55
2019-02-28T10:16:27.687Z,15.55
2019-02-28T10:18:55.511Z,16.81
2019-02-28T10:21:29.301Z,16.81
2019-02-28T10:23:59.134Z,16.79
2019-02-28T10:26:28.107Z,16.56
2019-02-28T10:28:55.707Z,16.76
2019-02-28T10:31:35.237Z,17.03
2019-02-28T10:33:54.730Z,17.03
2019-02-28T10:36:22.310Z,17.25
2019-02-28T10:38:50.112Z,17.39
2019-02-28T10:41:18.324Z,17.56
2019-02-28T10:43:51.447Z,17.47
2019-02-28T10:46:27.545Z,16.93
2019-02-28T10:49:00.934Z,16.93
2019-02-28T10:51:28.510Z,16.07
2019-02-28T10:54:01.969Z,16.15
2019-02-28T10:56:32.014Z,16.15
2019-02-28T10:58:58.837Z,16.82
2019-02-28T11:01:26.453Z,18.45
2019-02-28T11:04:00.220Z,18.45
2019-02-28T11:06:28.287Z,19.35
2019-02-28T11:08:55.868Z,20.21
2019-02-28T11:11:23.409Z,20.82
2019-02-28T11:13:51.291Z,21.17
2019-02-28T11:16:23.588Z,21.45
2019-02-28T11:18:53.544Z,21.59
2019-02-28T11:21:21.621Z,21.59
2019-02-28T11:23:50.823Z,21.68
2019-02-28T11:26:18.407Z,21.62
2019-02-28T11:28:47.319Z,21.31
2019-02-28T11:31:16.356Z,20.71
2019-02-28T11:33:50.354Z,20.61
2019-02-28T11:36:19.226Z,20.37
2019-02-28T11:38:46.853Z,20.16
2019-02-28T11:41:15.477Z,20.05
2019-02-28T11:43:46.802Z,19.97
2019-02-28T11:46:14.345Z,19.31
2019-02-28T11:48:42.972Z,19.31
2019-02-28T11:51:10.833Z,18.84
2019-02-28T11:53:40.352Z,17.76
2019-02-28T11:56:07.640Z,17.76
2019-02-28T11:58:35.436Z,17.30
2019-02-28T12:01:03.185Z,16.97
2019-02-28T12:03:31.918Z,16.41
2019-02-28T12:06:00.108Z,16.41
2019-02-28T12:08:27.654Z,16.19
2019-02-28T12:10:58.424Z,16.10
2019-02-28T12:13:25.155Z,16.03
2019-02-28T12:15:54.406Z,15.91
2019-02-28T12:18:23.475Z,15.87
2019-02-28T12:20:52.418Z,15.98
2019-02-28T12:23:22.975Z,16.22
2019-02-28T12:25:49.159Z,16.47
2019-02-28T12:28:17.066Z,16.70
2019-02-28T12:30:46.668Z,17.43
2019-02-28T12:33:15.416Z,17.69
2019-02-28T12:35:43.767Z,17.92
2019-02-28T12:38:11.392Z,17.92
2019-02-28T12:40:42.536Z,18.19
2019-02-28T12:43:09.581Z,18.90
2019-02-28T12:45:37.539Z,18.90
2019-02-28T12:48:05.152Z,19.37
2019-02-28T12:50:35.867Z,19.37
2019-02-28T12:53:03.433Z,19.94
2019-02-28T12:55:30.990Z,19.94
2019-02-28T12:58:01.679Z,20.05
2019-02-28T13:00:30.898Z,20.17
2019-02-28T13:02:58.450Z,20.31
2019-02-28T13:05:26.333Z,20.15
2019-02-28T13:07:54.268Z,20.03
2019-02-28T13:10:27.978Z,19.76
2019-02-28T13:12:53.439Z,19.59
2019-02-28T13:15:24.175Z,19.43
2019-02-28T13:17:53.860Z,19.43
2019-02-28T13:20:21.828Z,19.21
2019-02-28T13:22:49.453Z,19.04
2019-02-28T13:25:19.368Z,19.04
2019-02-28T13:27:46.560Z,18.77
2019-02-28T13:30:17.174Z,18.77
2019-02-28T13:32:45.533Z,18.56
2019-02-28T13:35:14.143Z,18.29
2019-02-28T13:37:42.253Z,18.14
2019-02-28T13:40:13.081Z,18.03
2019-02-28T13:42:42.276Z,17.95
2019-02-28T13:45:14.842Z,17.92
2019-02-28T13:47:46.304Z,17.91
2019-02-28T13:50:12.602Z,17.91
2019-02-28T13:52:44.056Z,17.84
2019-02-28T13:55:14.305Z,17.81
2019-02-28T13:57:46.456Z,17.73
2019-02-28T14:00:13.494Z,17.45
2019-02-28T14:02:46.482Z,17.45
2019-02-28T14:05:17.634Z,17.41
2019-02-28T14:07:50.925Z,17.38
2019-02-28T14:10:18.904Z,17.15
2019-02-28T14:12:46.812Z,16.88
2019-02-28T14:15:15.485Z,16.79
2019-02-28T14:17:43.628Z,16.61
2019-02-28T14:20:30.027Z,16.60
2019-02-28T14:23:00.269Z,16.51
2019-02-28T14:25:29.126Z,16.51
2019-02-28T14:28:00.146Z,16.65
2019-02-28T14:33:01.055Z,16.94
2019-02-28T14:35:47.437Z,16.85
2019-02-28T14:38:15.116Z,16.82
2019-02-28T14:40:42.923Z,16.52
2019-02-28T14:43:10.497Z,16.29
2019-02-28T14:45:39.259Z,16.29
2019-02-28T14:48:26.151Z,16.05
2019-02-28T14:50:55.299Z,15.85
2019-02-28T14:53:23.188Z,15.60
2019-02-28T14:55:53.020Z,15.29
2019-02-28T14:58:22.319Z,14.61
2019-02-28T15:00:50.346Z,14.61
2019-02-28T15:03:17.905Z,14.30
2019-02-28T15:06:09.636Z,14.05
2019-02-28T15:08:37.970Z,13.87
2019-02-28T15:11:06.472Z,13.65
2019-02-28T15:13:53.513Z,13.34
2019-02-28T15:16:41.371Z,13.10
2019-02-28T15:19:09.297Z,12.65
2019-02-28T15:21:49.257Z,12.65
2019-02-28T15:24:08.714Z,12.51
2019-02-28T15:26:35.678Z,12.36
2019-02-28T15:29:36.053Z,12.18
2019-02-28T15:31:51.620Z,12.08
2019-02-28T15:36:55.583Z,11.95
2019-02-28T15:39:44.289Z,11.95
2019-02-28T15:42:14.258Z,11.93
2019-02-28T15:45:03.922Z,11.87
2019-02-28T15:50:35.056Z,11.81
2019-02-28T15:53:02.706Z,11.81
2019-02-28T15:55:30.574Z,11.79
2019-02-28T15:57:58.476Z,11.75
2019-02-28T16:03:13.542Z,11.73
2019-02-28T16:05:44.081Z,11.73
2019-02-28T16:08:11.541Z,11.72
2019-02-28T16:10:57.870Z,11.69
2019-02-28T16:13:25.974Z,11.69
2019-02-28T16:16:16.960Z,11.69
2019-02-28T16:18:47.278Z,11.69
2019-02-28T16:21:32.680Z,11.69
2019-02-28T16:24:02.057Z,11.68
2019-02-28T16:29:30.338Z,11.69
2019-02-28T16:32:04.161Z,11.68
2019-02-28T16:34:32.342Z,11.68
2019-02-28T16:39:49.096Z,11.68
2019-02-28T16:42:36.425Z,11.68
2019-02-28T16:47:59.209Z,11.67
2019-02-28T16:50:40.446Z,11.67
2019-02-28T16:53:16.289Z,11.67
2019-02-28T16:55:45.753Z,11.67
2019-02-28T16:58:18.601Z,11.68
2019-02-28T17:03:19.657Z,11.71
2019-02-28T17:05:47.387Z,11.72
2019-02-28T17:08:15.538Z,11.72
2019-02-28T17:11:03.049Z,11.73
2019-02-28T17:16:33.663Z,11.78
2019-02-28T17:22:05.014Z,11.79
2019-02-28T17:24:32.570Z,11.79
2019-02-28T17:27:18.978Z,11.78
2019-02-28T17:30:05.292Z,11.77
2019-02-28T17:32:36.025Z,11.78
2019-02-28T17:35:03.628Z,11.78
2019-02-28T17:37:31.199Z,11.78
2019-02-28T17:40:04.166Z,11.78
2019-02-28T17:42:33.454Z,11.80
2019-02-28T17:45:01.372Z,11.80
2019-02-28T17:47:29.400Z,11.81
2019-02-28T17:49:56.871Z,11.80
2019-02-28T17:52:24.746Z,11.80
2019-02-28T17:54:54.247Z,11.81
2019-02-28T17:57:23.874Z,11.81
2019-02-28T17:59:54.157Z,11.81
2019-02-28T18:02:21.716Z,11.80
2019-02-28T18:04:49.471Z,11.79
2019-02-28T18:07:19.978Z,11.79
2019-02-28T18:09:48.082Z,11.80
2019-02-28T18:12:20.964Z,11.81
2019-02-28T18:14:50.701Z,11.81
2019-02-28T18:17:18.360Z,11.83
2019-02-28T18:19:46.180Z,11.84
2019-02-28T18:22:16.901Z,11.84
2019-02-28T18:24:51.633Z,11.82
2019-02-28T18:27:22.611Z,11.83
2019-02-28T18:29:55.163Z,11.84
2019-02-28T18:32:25.715Z,11.84
2019-02-28T18:34:57.145Z,11.85
2019-02-28T18:37:24.649Z,11.85
2019-02-28T18:39:52.926Z,11.85
2019-02-28T18:42:22.431Z,11.86
2019-02-28T18:44:49.932Z,11.86
2019-02-28T18:47:19.474Z,11.85
2019-02-28T18:49:47.258Z,11.85
2019-02-28T18:52:20.550Z,11.86
2019-02-28T18:54:48.158Z,11.85
2019-02-28T18:57:16.000Z,11.85
2019-02-28T18:59:45.393Z,11.85
2019-02-28T19:02:12.967Z,11.84
2019-02-28T19:04:40.790Z,11.84
2019-02-28T19:07:08.331Z,11.82
2019-02-28T19:09:36.246Z,11.80
2019-02-28T19:12:08.072Z,11.79
2019-02-28T19:14:35.681Z,11.79
2019-02-28T19:17:03.270Z,11.74
2019-02-28T19:19:35.843Z,11.71
2019-02-28T19:22:03.297Z,11.71
2019-02-28T19:24:30.901Z,11.68
2019-02-28T19:26:58.778Z,11.66
2019-02-28T19:29:29.042Z,11.64
2019-02-28T19:31:57.022Z,11.64
2019-02-28T19:34:26.836Z,11.64
2019-02-28T19:36:54.077Z,11.63
2019-02-28T19:39:21.707Z,11.63
2019-02-28T19:41:49.636Z,11.57
2019-02-28T19:44:17.188Z,11.50
2019-02-28T19:46:44.816Z,11.40
2019-02-28T19:49:12.644Z,11.34
2019-02-28T19:51:40.474Z,11.34
2019-02-28T19:54:21.969Z,11.32
2019-02-28T19:56:49.901Z,11.34
2019-02-28T19:59:17.378Z,11.36
2019-02-28T20:01:45.477Z,11.36
2019-02-28T20:04:15.813Z,11.39
2019-02-28T20:06:45.832Z,11.39
2019-02-28T20:09:13.369Z,11.42
2019-02-28T20:11:42.795Z,11.42
2019-02-28T20:14:10.724Z,11.42
2019-02-28T20:16:38.163Z,11.42
2019-02-28T20:19:08.657Z,11.43
2019-02-28T20:21:36.152Z,11.42
2019-02-28T20:24:09.627Z,11.43
2019-02-28T20:26:37.418Z,11.43
2019-02-28T20:29:05.052Z,11.44
2019-02-28T20:31:32.913Z,11.42
2019-02-28T20:34:00.780Z,11.42
2019-02-28T20:36:32.804Z,11.41
2019-02-28T20:39:00.424Z,11.41
2019-02-28T20:41:28.288Z,11.43
2019-02-28T20:43:58.959Z,11.43
2019-02-28T20:46:26.812Z,11.42
2019-02-28T20:48:54.626Z,11.40
2019-02-28T20:51:22.214Z,11.38
2019-02-28T20:53:49.760Z,11.38
2019-02-28T20:56:19.154Z,11.35
2019-02-28T20:58:59.991Z,11.35
2019-02-28T21:01:25.128Z,11.33
2019-02-28T21:03:52.979Z,11.28
2019-02-28T21:06:20.569Z,11.28
2019-02-28T21:08:50.294Z,11.24
2019-02-28T21:11:23.133Z,11.19
2019-02-28T21:13:53.199Z,11.16
2019-02-28T21:16:23.889Z,11.13
2019-02-28T21:18:51.490Z,11.07
2019-02-28T21:21:19.075Z,11.03
2019-02-28T21:23:46.933Z,11.02
2019-02-28T21:26:14.493Z,11.00
2019-02-28T21:28:42.388Z,11.00
2019-02-28T21:31:10.258Z,10.96
2019-02-28T21:33:37.785Z,10.97
2019-02-28T21:36:07.472Z,10.97
2019-02-28T21:38:35.265Z,10.98
2019-02-28T21:41:02.884Z,11.01
2019-02-28T21:43:30.473Z,11.01
2019-02-28T21:46:30.980Z,11.01
2019-02-28T21:49:07.566Z,10.98
2019-02-28T21:51:53.901Z,10.96
2019-02-28T21:54:40.287Z,10.94
2019-02-28T21:57:26.667Z,10.94
2019-02-28T22:00:13.076Z,10.74
2019-02-28T22:02:59.402Z,10.74
2019-02-28T22:05:38.801Z,10.55
2019-02-28T22:08:15.084Z,10.55
2019-02-28T22:10:42.702Z,10.28
2019-02-28T22:13:10.238Z,10.28
2019-02-28T22:15:56.658Z,10.15
2019-02-28T22:18:55.133Z,9.99
2019-02-28T22:21:45.128Z,9.99
2019-02-28T22:24:00.367Z,9.93
2019-02-28T22:26:47.052Z,9.88
2019-02-28T22:29:14.559Z,9.79
2019-02-28T22:32:01.136Z,9.79
2019-02-28T22:34:47.666Z,9.76
2019-02-28T22:37:33.966Z,9.73
2019-02-28T22:40:01.674Z,9.71
2019-02-28T22:42:48.471Z,9.63
2019-02-28T22:45:16.076Z,9.63
2019-02-28T22:47:43.760Z,9.55
2019-02-28T22:50:30.113Z,9.52
2019-02-28T22:53:16.546Z,9.50
2019-02-28T22:55:44.214Z,9.50
2019-02-28T22:58:30.663Z,9.49
2019-02-28T23:01:16.985Z,9.49
2019-02-28T23:06:19.768Z,9.49
2019-02-28T23:08:49.351Z,9.50
2019-02-28T23:11:17.400Z,9.50
2019-02-28T23:13:45.741Z,9.52
2019-02-28T23:16:13.337Z,9.52
2019-02-28T23:18:59.661Z,9.55
2019-02-28T23:21:27.308Z,9.55
2019-02-28T23:23:55.370Z,9.57
2019-02-28T23:29:03.132Z,9.57
2019-02-28T23:31:32.488Z,9.57
2019-02-28T23:34:18.897Z,9.54
2019-02-28T23:36:46.346Z,9.54
2019-02-28T23:39:32.705Z,9.54
2019-02-28T23:42:00.827Z,9.54
2019-02-28T23:44:47.174Z,9.56
2019-02-28T23:47:15.228Z,9.56
2019-02-28T23:49:42.840Z,9.59
2019-02-28T23:54:46.534Z,9.64
2019-02-28T23:57:32.985Z,9.64
